Terminal Aerodrome Forecast
Issued by NWS Omaha/Valley, NE

Home | Current Version | Previous Version | Text Only | Print | Product List | Glossary On
Versions: 1 2 3 4 5 6 7 8 9 10 11 12 13 14 15 16 17 18 19 20 21
000
FTUS43 KOAX 161405 AAA
TAFOMA
TAF AMD
KOMA 161405Z 1614/1712 19024G32KT P6SM BKN150
     FM162130 30022G31KT P6SM BKN070
     FM170300 32014KT P6SM SCT070
     FM170700 33008KT P6SM SCT070=

USA.gov is the U.S. government's official web portal to all federal, state and local government web resources and services.